Impacts METAR Board
IDs:

KDHN - Dothan Rgnl, AL, US

Updated at: 1300 UTC 21 May 2018
Potential Impact None Slight Moderate High
Time 21/01Z 21/02Z 21/03Z 21/04Z 21/05Z 21/06Z 21/07Z 21/08Z 21/09Z 21/10Z 21/11Z 21/12Z 21/13Z
Temp73 71 70 70 70 70 70 69 68 68 69 69 71
Dewpt68 66 65 65 65 64 64 64 65 65 66 66 67
Altim30.11 30.12 30.15 30.16 30.14 30.12 30.11 30.09 30.08 30.08 30.08 30.10 30.10
VIS10 10 10 10 10 10 10 10 10 10 10 10 10
CIG18 -- -- -- -- -- 44 24 50 8 8 7 15
CoverBKNSCTCLRCLRCLRCLROVCOVCOVCOVCOVCOVCOVC
FltCatMVFRVFRVFRVFRVFRVFRVFRMVFRVFRIFRIFRIFRMVFR
WX--------------------------
WDir120110100707010080908050707080
WSpd9 9 6 3 4 7 6 12 7 7 7 4 8
WGst-- -- -- -- -- -- -- 18 -- -- -- -- --
Raw hourly METARs
KDHN 210100Z AUTO 12009KT 10SM BKN018 23/20 A3011 RMK AO2 T02280200
KDHN 210153Z AUTO 11009KT 10SM SCT019 22/19 A3012 RMK AO2 SLP193 T02170189
KDHN 210253Z AUTO 10006KT 10SM CLR 21/18 A3015 RMK AO2 SLP203 T02110183 53012
KDHN 210353Z AUTO 07003KT 10SM CLR 21/18 A3016 RMK AO2 SLP209 T02110183
KDHN 210453Z AUTO 07004KT 10SM CLR 21/18 A3014 RMK AO2 SLP202 T02110183 403170211
KDHN 210553Z AUTO 10007KT 10SM CLR 21/18 A3012 RMK AO2 SLP192 T02110178 10233 20211 58010
KDHN 210653Z AUTO 08006KT 10SM FEW028 OVC044 21/18 A3011 RMK AO2 SLP189 T02110178
KDHN 210753Z AUTO 09012G18KT 10SM BKN024 OVC031 21/18 A3009 RMK AO2 SLP184 T02060178
KDHN 210853Z AUTO 08007KT 10SM SCT007 BKN050 OVC110 20/18 A3008 RMK AO2 RAB0757E47 SLP182 P0003 60003 T02000183 56011
KDHN 210953Z AUTO 05007KT 10SM BKN008 BKN012 OVC030 20/18 A3008 RMK AO2 SLP182 T02000183
KDHN 211053Z 07007KT 10SM BKN008 OVC012 21/19 A3008 RMK AO2 CIG 005V011 SLP182 T02060189
KDHN 211153Z 07004KT 10SM BKN007 BKN012 OVC026 21/19 A3010 RMK AO2 SLP187 60003 70033 T02060189 10211 20200 53004
KDHN 211253Z 08008KT 10SM SCT007 BKN015 OVC020 22/19 A3010 RMK AO2 SLP190 T02170194



Page loaded:  13:14 UTC  |   06:14 AM Pacific  |   07:14 AM Mountain  |   08:14 AM Central  |   09:14 AM Eastern

 

ADVISORIES

FORECASTS

FORECASTS

OBSERVATIONS

USER TOOLS

ABOUT US